createdAt,value
2023-05-20T00:01:34.616Z,17.61
2023-05-20T00:04:36.186Z,17.60
2023-05-20T00:07:37.730Z,17.60
2023-05-20T00:10:39.410Z,17.62
2023-05-20T00:13:41.015Z,17.60
2023-05-20T00:16:43.626Z,17.60
2023-05-20T00:19:45.209Z,17.59
2023-05-20T00:22:47.142Z,17.60
2023-05-20T00:25:49.483Z,17.60
2023-05-20T00:28:51.001Z,17.60
2023-05-20T00:31:52.652Z,17.60
2023-05-20T00:34:58.820Z,17.59
2023-05-20T00:38:00.438Z,17.58
2023-05-20T00:41:02.038Z,17.58
2023-05-20T00:44:03.599Z,17.59
2023-05-20T00:47:05.618Z,17.58
2023-05-20T00:50:08.265Z,17.58
2023-05-20T00:53:10.679Z,17.57
2023-05-20T00:56:12.919Z,17.57
2023-05-20T00:59:15.325Z,17.57
2023-05-20T01:02:16.991Z,17.57
2023-05-20T01:05:19.440Z,17.56
2023-05-20T01:08:22.667Z,17.55
2023-05-20T01:11:34.813Z,17.57
2023-05-20T01:15:05.818Z,17.57
2023-05-20T01:18:10.712Z,17.54
2023-05-20T01:21:15.807Z,17.55
2023-05-20T01:24:17.357Z,17.53
2023-05-20T01:27:20.712Z,17.55
2023-05-20T01:30:22.660Z,17.53
2023-05-20T01:33:26.434Z,17.54
2023-05-20T01:36:28.670Z,17.53
2023-05-20T01:39:31.204Z,17.54
2023-05-20T01:42:33.798Z,17.52
2023-05-20T01:45:35.787Z,17.52
2023-05-20T01:48:38.294Z,17.51
2023-05-20T01:51:39.866Z,17.51
2023-05-20T01:54:41.457Z,17.51
2023-05-20T01:57:43.110Z,17.51
2023-05-20T02:00:44.843Z,17.50
2023-05-20T02:03:46.422Z,17.50
2023-05-20T02:06:48.322Z,17.51
2023-05-20T02:09:49.873Z,17.50
2023-05-20T02:12:51.546Z,17.49
2023-05-20T02:15:53.249Z,17.50
2023-05-20T02:18:54.886Z,17.50
2023-05-20T02:21:57.457Z,17.49
2023-05-20T02:24:59.039Z,17.49
2023-05-20T02:28:00.711Z,17.48
2023-05-20T02:31:02.722Z,17.48
2023-05-20T02:34:06.331Z,17.48
2023-05-20T02:37:07.943Z,17.47
2023-05-20T02:40:10.674Z,17.48
2023-05-20T02:43:13.861Z,17.48
2023-05-20T02:46:15.944Z,17.47
2023-05-20T02:49:17.666Z,17.47
2023-05-20T02:52:19.510Z,17.48
2023-05-20T02:55:21.312Z,17.47
2023-05-20T02:58:26.272Z,17.46
2023-05-20T03:01:29.114Z,17.47
2023-05-20T03:04:31.610Z,17.47
2023-05-20T03:07:36.628Z,17.47
2023-05-20T03:10:40.951Z,17.45
2023-05-20T03:13:42.511Z,17.45
2023-05-20T03:16:44.131Z,17.44
2023-05-20T03:19:46.173Z,17.44
2023-05-20T03:22:47.789Z,17.44
2023-05-20T03:25:49.429Z,17.43
2023-05-20T03:28:51.320Z,17.44
2023-05-20T03:31:53.040Z,17.43
2023-05-20T03:34:54.872Z,17.44
2023-05-20T03:37:56.659Z,17.44
2023-05-20T03:40:59.547Z,17.42
2023-05-20T03:44:01.316Z,17.42
2023-05-20T03:47:03.001Z,17.43
2023-05-20T03:50:06.483Z,17.42
2023-05-20T03:53:08.103Z,17.42
2023-05-20T03:56:16.863Z,17.43
2023-05-20T03:59:19.105Z,17.43
2023-05-20T04:02:21.852Z,17.40
2023-05-20T04:05:24.604Z,17.42
2023-05-20T04:08:26.358Z,17.41
2023-05-20T04:11:28.016Z,17.41
2023-05-20T04:14:29.704Z,17.41
2023-05-20T04:17:31.628Z,17.41
2023-05-20T04:20:33.435Z,17.41
2023-05-20T04:23:35.626Z,17.40
2023-05-20T04:26:37.587Z,17.40
2023-05-20T04:29:41.444Z,17.41
2023-05-20T04:32:43.080Z,17.41
2023-05-20T04:35:44.857Z,17.41
2023-05-20T04:38:48.170Z,17.39
2023-05-20T04:41:49.695Z,17.41
2023-05-20T04:44:51.577Z,17.39
2023-05-20T04:47:53.467Z,17.39
2023-05-20T04:50:55.135Z,17.40
2023-05-20T04:53:56.680Z,17.40
2023-05-20T04:56:58.744Z,17.41
2023-05-20T05:00:00.994Z,17.39
2023-05-20T05:03:04.037Z,17.38
2023-05-20T05:06:05.602Z,17.39
2023-05-20T05:09:07.936Z,17.39
2023-05-20T05:12:12.370Z,17.39
2023-05-20T05:15:14.027Z,17.39
2023-05-20T05:18:19.354Z,17.39
2023-05-20T05:21:20.988Z,17.39
2023-05-20T05:24:24.264Z,17.39
2023-05-20T05:27:26.007Z,17.39
2023-05-20T05:30:28.122Z,17.41
2023-05-20T05:33:30.490Z,17.41
2023-05-20T05:36:34.093Z,17.42
2023-05-20T05:39:37.677Z,17.39
2023-05-20T05:42:39.532Z,17.41
2023-05-20T05:45:43.169Z,17.39
2023-05-20T05:48:48.846Z,17.40
2023-05-20T05:51:51.293Z,17.41
2023-05-20T05:54:54.232Z,17.42
2023-05-20T05:57:56.527Z,17.40
2023-05-20T06:00:58.295Z,17.39
2023-05-20T06:04:00.085Z,17.41
2023-05-20T06:07:02.176Z,17.40
2023-05-20T06:10:04.034Z,17.40
2023-05-20T06:13:05.691Z,17.41
2023-05-20T06:16:08.109Z,17.41
2023-05-20T06:19:09.835Z,17.41
2023-05-20T06:22:11.606Z,17.42
2023-05-20T06:25:16.639Z,17.43
2023-05-20T06:28:19.164Z,17.41
2023-05-20T06:31:20.933Z,17.42
2023-05-20T06:34:23.078Z,17.42
2023-05-20T06:37:24.755Z,17.43
2023-05-20T06:40:27.239Z,17.43
2023-05-20T06:43:29.330Z,17.43
2023-05-20T06:46:54.301Z,17.43
2023-05-20T06:49:55.964Z,17.43
2023-05-20T06:52:57.575Z,17.43
2023-05-20T06:55:59.415Z,17.44
2023-05-20T06:59:01.582Z,17.44
2023-05-20T07:02:04.549Z,17.45
2023-05-20T07:05:07.242Z,17.46
2023-05-20T07:08:09.134Z,17.48
2023-05-20T07:11:10.824Z,17.47
2023-05-20T07:14:12.470Z,17.48
2023-05-20T07:17:15.177Z,17.49
2023-05-20T07:20:18.012Z,17.50
2023-05-20T07:23:19.686Z,17.51
2023-05-20T07:26:27.442Z,17.51
2023-05-20T07:29:29.722Z,17.53
2023-05-20T07:32:31.762Z,17.53
2023-05-20T07:35:34.484Z,17.52
2023-05-20T07:38:36.284Z,17.54
2023-05-20T07:41:42.022Z,17.55
2023-05-20T07:44:44.100Z,17.54
2023-05-20T07:47:46.303Z,17.54
2023-05-20T07:50:47.913Z,17.55
2023-05-20T07:53:49.794Z,17.54
2023-05-20T07:56:51.534Z,17.53
2023-05-20T07:59:53.736Z,17.54
2023-05-20T08:02:55.752Z,17.54
2023-05-20T08:06:05.958Z,17.53
2023-05-20T08:09:08.002Z,17.53
2023-05-20T08:12:13.869Z,17.52
2023-05-20T08:15:16.037Z,17.52
2023-05-20T08:18:17.843Z,17.52
2023-05-20T08:21:19.379Z,17.50
2023-05-20T08:24:21.181Z,17.50
2023-05-20T08:27:23.426Z,17.50
2023-05-20T08:30:25.063Z,17.50
2023-05-20T08:33:27.103Z,17.50
2023-05-20T08:36:28.670Z,17.50
2023-05-20T08:39:30.314Z,17.49
2023-05-20T08:42:32.382Z,17.50
2023-05-20T08:45:36.925Z,17.50
2023-05-20T08:48:43.081Z,17.50
2023-05-20T08:51:46.142Z,17.50
2023-05-20T08:54:50.282Z,17.50
2023-05-20T08:57:52.081Z,17.50
2023-05-20T09:00:53.620Z,17.50
2023-05-20T09:03:55.204Z,17.51
2023-05-20T09:06:56.712Z,17.51
2023-05-20T09:09:58.762Z,17.52
2023-05-20T09:13:07.487Z,17.53
2023-05-20T09:16:13.486Z,17.52
2023-05-20T09:19:15.343Z,17.52
2023-05-20T09:22:27.349Z,17.54
2023-05-20T09:25:32.477Z,17.53
2023-05-20T09:28:36.012Z,17.54
2023-05-20T09:31:38.961Z,17.55
2023-05-20T09:34:43.002Z,17.56
2023-05-20T09:37:47.037Z,17.58
2023-05-20T09:40:49.463Z,17.58
2023-05-20T09:43:52.542Z,17.59
2023-05-20T09:46:54.765Z,17.60
2023-05-20T09:49:56.583Z,17.62
2023-05-20T09:53:02.751Z,17.66
2023-05-20T09:56:04.544Z,17.66
2023-05-20T09:59:06.394Z,17.68
2023-05-20T10:02:08.794Z,17.70
2023-05-20T10:05:17.353Z,17.71
2023-05-20T10:08:32.852Z,17.71
2023-05-20T10:11:40.442Z,17.71
2023-05-20T10:15:11.487Z,17.73
2023-05-20T10:18:16.087Z,17.74
2023-05-20T10:21:24.274Z,17.76
2023-05-20T10:24:40.969Z,17.77
2023-05-20T10:27:44.390Z,17.76
2023-05-20T10:30:51.027Z,17.79
2023-05-20T10:33:53.796Z,17.78
2023-05-20T10:36:55.282Z,17.80
2023-05-20T10:40:22.504Z,17.85
2023-05-20T10:43:30.551Z,17.88
2023-05-20T10:46:48.192Z,17.90
2023-05-20T10:49:55.484Z,17.92
2023-05-20T10:53:09.476Z,17.95
2023-05-20T10:56:20.088Z,17.97
2023-05-20T10:59:22.275Z,17.96
2023-05-20T11:02:27.077Z,18.00
2023-05-20T11:05:29.725Z,18.02
2023-05-20T11:08:33.834Z,18.02
2023-05-20T11:11:38.558Z,18.04
2023-05-20T11:14:40.135Z,18.06
2023-05-20T11:18:02.946Z,18.09
2023-05-20T11:21:04.805Z,18.08
2023-05-20T11:24:06.998Z,18.09
2023-05-20T11:27:09.134Z,18.12
2023-05-20T11:30:18.438Z,18.13
2023-05-20T11:33:20.205Z,18.13
2023-05-20T11:36:27.817Z,18.14
2023-05-20T11:39:30.564Z,18.14
2023-05-20T11:42:32.854Z,18.15
2023-05-20T11:45:42.453Z,18.15
2023-05-20T11:48:51.995Z,18.15
2023-05-20T11:51:53.532Z,18.14
2023-05-20T11:54:55.083Z,18.15
2023-05-20T11:57:58.643Z,18.15
2023-05-20T12:01:09.634Z,18.14
2023-05-20T12:04:21.922Z,18.15
2023-05-20T12:07:23.562Z,18.16
2023-05-20T12:10:25.070Z,18.16
2023-05-20T12:13:26.694Z,18.17
2023-05-20T12:16:29.041Z,18.17
2023-05-20T12:19:30.794Z,18.17
2023-05-20T12:22:32.540Z,18.18
2023-05-20T12:25:34.067Z,18.17
2023-05-20T12:28:36.181Z,18.17
2023-05-20T12:31:37.903Z,18.17
2023-05-20T12:34:39.557Z,18.19
2023-05-20T12:37:42.356Z,18.19
2023-05-20T12:40:44.109Z,18.18
2023-05-20T12:43:45.735Z,18.19
2023-05-20T12:46:47.396Z,18.19
2023-05-20T12:49:49.001Z,18.18
2023-05-20T12:52:50.632Z,18.19
2023-05-20T12:55:52.422Z,18.21
2023-05-20T12:58:53.937Z,18.20
2023-05-20T13:01:55.597Z,18.21
2023-05-20T13:04:57.219Z,18.22
2023-05-20T13:07:58.750Z,18.22
2023-05-20T13:11:00.343Z,18.24
2023-05-20T13:14:01.857Z,18.25
2023-05-20T13:17:03.523Z,18.24
2023-05-20T13:20:06.548Z,18.27
2023-05-20T13:23:08.163Z,18.26
2023-05-20T13:26:10.067Z,18.28
2023-05-20T13:29:12.530Z,18.28
2023-05-20T13:32:14.094Z,18.29
2023-05-20T13:35:16.835Z,18.31
2023-05-20T13:38:18.479Z,18.31
2023-05-20T13:41:20.025Z,18.32
2023-05-20T13:44:21.787Z,18.33
2023-05-20T13:47:23.313Z,18.33
2023-05-20T13:50:26.250Z,18.34
2023-05-20T13:53:28.401Z,18.35
2023-05-20T13:56:30.343Z,18.36
2023-05-20T13:59:31.840Z,18.37
2023-05-20T14:02:33.457Z,18.37
2023-05-20T14:05:35.595Z,18.39
2023-05-20T14:08:37.184Z,18.38
2023-05-20T14:11:38.738Z,18.41
2023-05-20T14:14:40.274Z,18.45
2023-05-20T14:17:42.038Z,18.44
2023-05-20T14:20:43.842Z,18.43
2023-05-20T14:23:45.522Z,18.42
2023-05-20T14:26:47.076Z,18.40
2023-05-20T14:29:48.615Z,18.39
2023-05-20T14:32:50.314Z,18.39
2023-05-20T14:35:51.878Z,18.37
2023-05-20T14:38:53.424Z,18.36
2023-05-20T14:41:54.962Z,18.35
2023-05-20T14:44:56.564Z,18.35
2023-05-20T14:47:58.078Z,18.34
2023-05-20T14:50:59.629Z,18.35
2023-05-20T14:54:01.245Z,18.35
2023-05-20T14:57:03.901Z,18.35
2023-05-20T15:00:06.041Z,18.34
2023-05-20T15:03:07.730Z,18.34
2023-05-20T15:06:09.332Z,18.35
2023-05-20T15:09:10.870Z,18.35
2023-05-20T15:12:12.477Z,18.35
2023-05-20T15:15:14.046Z,18.37
2023-05-20T15:18:15.778Z,18.38
2023-05-20T15:21:17.437Z,18.39
2023-05-20T15:24:18.951Z,18.37
2023-05-20T15:27:20.877Z,18.37
2023-05-20T15:30:22.826Z,18.39
2023-05-20T15:33:24.678Z,18.37
2023-05-20T15:36:26.276Z,18.38
2023-05-20T15:39:28.385Z,18.39
2023-05-20T15:42:29.883Z,18.40
2023-05-20T15:45:31.862Z,18.40
2023-05-20T15:48:34.845Z,18.40
2023-05-20T15:51:36.413Z,18.39
2023-05-20T15:54:37.941Z,18.40
2023-05-20T15:57:39.596Z,18.41
2023-05-20T16:00:41.212Z,18.43
2023-05-20T16:03:43.795Z,18.44
2023-05-20T16:06:45.491Z,18.44
2023-05-20T16:09:47.056Z,18.45
2023-05-20T16:12:48.589Z,18.45
2023-05-20T16:15:51.014Z,18.46
2023-05-20T16:18:53.401Z,18.47
2023-05-20T16:21:54.964Z,18.47
2023-05-20T16:24:56.561Z,18.49
2023-05-20T16:28:00.868Z,18.50
2023-05-20T16:31:02.407Z,18.51
2023-05-20T16:34:04.154Z,18.51
2023-05-20T16:37:05.897Z,18.51
2023-05-20T16:40:09.442Z,18.53
2023-05-20T16:43:11.056Z,18.52
2023-05-20T16:46:14.510Z,18.53
2023-05-20T16:49:16.584Z,18.54
2023-05-20T16:52:18.189Z,18.54
2023-05-20T16:55:19.990Z,18.54
2023-05-20T16:58:21.545Z,18.57
2023-05-20T17:01:23.855Z,18.56
2023-05-20T17:04:26.566Z,18.56
2023-05-20T17:07:28.155Z,18.57
2023-05-20T17:10:29.842Z,18.58
2023-05-20T17:13:31.357Z,18.58
2023-05-20T17:16:33.090Z,18.59
2023-05-20T17:19:35.327Z,18.60
2023-05-20T17:22:36.901Z,18.61
2023-05-20T17:25:38.419Z,18.60
2023-05-20T17:28:39.991Z,18.63
2023-05-20T17:31:41.512Z,18.61
2023-05-20T17:34:43.053Z,18.62
2023-05-20T17:37:44.544Z,18.62
2023-05-20T17:40:46.046Z,18.63
2023-05-20T17:43:47.940Z,18.63
2023-05-20T17:46:49.567Z,18.61
2023-05-20T17:49:51.391Z,18.62
2023-05-20T17:52:52.912Z,18.61
2023-05-20T17:55:54.449Z,18.62
2023-05-20T17:58:56.350Z,18.63
2023-05-20T18:01:58.006Z,18.61
2023-05-20T18:04:59.665Z,18.61
2023-05-20T18:08:01.485Z,18.62
2023-05-20T18:11:03.158Z,18.62
2023-05-20T18:14:04.763Z,18.62
2023-05-20T18:17:06.410Z,18.62
2023-05-20T18:20:09.627Z,18.63
2023-05-20T18:23:11.424Z,18.61
2023-05-20T18:26:13.048Z,18.63
2023-05-20T18:29:14.717Z,18.64
2023-05-20T18:32:16.338Z,18.64
2023-05-20T18:35:17.871Z,18.64
2023-05-20T18:38:19.502Z,18.64
2023-05-20T18:41:23.549Z,18.63
2023-05-20T18:44:29.062Z,18.64
2023-05-20T18:47:30.792Z,18.65
2023-05-20T18:50:33.036Z,18.64
2023-05-20T18:53:34.730Z,18.65
2023-05-20T18:56:36.379Z,18.64
2023-05-20T18:59:37.942Z,18.64
2023-05-20T19:02:40.477Z,18.64
2023-05-20T19:05:42.080Z,18.63
2023-05-20T19:08:44.249Z,18.63
2023-05-20T19:11:46.103Z,18.63
2023-05-20T19:14:47.622Z,18.62
2023-05-20T19:17:49.206Z,18.62
2023-05-20T19:20:52.364Z,18.62
2023-05-20T19:23:53.927Z,18.61
2023-05-20T19:26:55.522Z,18.62
2023-05-20T19:29:57.157Z,18.62
2023-05-20T19:33:02.762Z,18.63
2023-05-20T19:36:05.550Z,18.63
2023-05-20T19:39:07.930Z,18.62
2023-05-20T19:42:09.507Z,18.62
2023-05-20T19:45:11.434Z,18.63
2023-05-20T19:48:12.981Z,18.61
2023-05-20T19:51:14.535Z,18.61
2023-05-20T19:54:16.126Z,18.63
2023-05-20T19:57:17.711Z,18.62
2023-05-20T20:00:20.805Z,18.62
2023-05-20T20:03:22.318Z,18.62
2023-05-20T20:06:24.008Z,18.62
2023-05-20T20:09:25.797Z,18.61
2023-05-20T20:12:27.304Z,18.61
2023-05-20T20:15:30.441Z,18.62
2023-05-20T20:18:32.760Z,18.62
2023-05-20T20:21:36.101Z,18.62
2023-05-20T20:24:37.907Z,18.63
2023-05-20T20:27:44.023Z,18.63
2023-05-20T20:30:45.678Z,18.63
2023-05-20T20:33:47.507Z,18.63
2023-05-20T20:36:50.663Z,18.62
2023-05-20T20:39:52.834Z,18.64
2023-05-20T20:42:54.802Z,18.62
2023-05-20T20:45:56.593Z,18.63
2023-05-20T20:48:58.159Z,18.62
2023-05-20T20:51:59.715Z,18.62
2023-05-20T20:55:01.431Z,18.63
2023-05-20T20:58:05.001Z,18.63
2023-05-20T21:01:07.010Z,18.62
2023-05-20T21:04:09.511Z,18.63
2023-05-20T21:07:11.977Z,18.63
2023-05-20T21:10:13.912Z,18.63
2023-05-20T21:13:15.553Z,18.62
2023-05-20T21:16:17.095Z,18.62
2023-05-20T21:19:18.752Z,18.62
2023-05-20T21:22:21.022Z,18.62
2023-05-20T21:25:22.557Z,18.62
2023-05-20T21:28:24.172Z,18.61
2023-05-20T21:31:25.851Z,18.62
2023-05-20T21:34:27.396Z,18.61
2023-05-20T21:37:28.929Z,18.60
2023-05-20T21:40:30.467Z,18.61
2023-05-20T21:43:31.979Z,18.60
2023-05-20T21:46:33.628Z,18.59
2023-05-20T21:49:35.272Z,18.59
2023-05-20T21:52:36.813Z,18.58
2023-05-20T21:55:38.593Z,18.57
2023-05-20T21:58:41.746Z,18.57
2023-05-20T22:01:43.436Z,18.57
2023-05-20T22:04:45.052Z,18.54
2023-05-20T22:07:47.599Z,18.54
2023-05-20T22:10:49.217Z,18.53
2023-05-20T22:13:50.985Z,18.53
2023-05-20T22:16:53.303Z,18.53
2023-05-20T22:19:54.878Z,18.51
2023-05-20T22:22:56.396Z,18.51
2023-05-20T22:25:58.025Z,18.50
2023-05-20T22:28:59.597Z,18.50
2023-05-20T22:32:01.302Z,18.47
2023-05-20T22:35:03.623Z,18.47
2023-05-20T22:38:05.402Z,18.46
2023-05-20T22:41:09.773Z,18.46
2023-05-20T22:44:11.333Z,18.45
2023-05-20T22:47:12.833Z,18.44
2023-05-20T22:50:14.471Z,18.44
2023-05-20T22:53:16.498Z,18.43
2023-05-20T22:56:18.710Z,18.42
2023-05-20T22:59:20.998Z,18.42
2023-05-20T23:02:25.996Z,18.41
2023-05-20T23:05:29.962Z,18.40
2023-05-20T23:08:31.488Z,18.39
2023-05-20T23:11:33.139Z,18.41
2023-05-20T23:14:34.946Z,18.35
2023-05-20T23:17:37.079Z,18.25
2023-05-20T23:20:40.545Z,18.17
2023-05-20T23:23:42.218Z,18.12
2023-05-20T23:26:44.003Z,18.06
2023-05-20T23:29:45.934Z,18.01
2023-05-20T23:32:47.502Z,17.96
2023-05-20T23:35:49.057Z,17.92
2023-05-20T23:38:51.190Z,17.89
2023-05-20T23:41:52.748Z,17.86
2023-05-20T23:44:54.301Z,17.83
2023-05-20T23:47:55.893Z,17.80
2023-05-20T23:50:57.470Z,17.76
2023-05-20T23:53:59.042Z,17.76
2023-05-20T23:57:00.942Z,17.74
